sensor_id;sensor_type;location;lat;lon;timestamp;P1;durP1;ratioP1;P2;durP2;ratioP2
2159;SDS011;1086;51.610;6.928;2022-08-21T00:02:25;6.97;;;2.47;;
2159;SDS011;1086;51.610;6.928;2022-08-21T00:04:51;4.78;;;2.47;;
2159;SDS011;1086;51.610;6.928;2022-08-21T00:07:17;6.65;;;2.85;;
2159;SDS011;1086;51.610;6.928;2022-08-21T00:09:42;6.20;;;2.75;;
2159;SDS011;1086;51.610;6.928;2022-08-21T00:12:08;4.05;;;2.70;;
2159;SDS011;1086;51.610;6.928;2022-08-21T00:14:33;3.38;;;2.75;;
2159;SDS011;1086;51.610;6.928;2022-08-21T00:16:59;6.22;;;3.20;;
2159;SDS011;1086;51.610;6.928;2022-08-21T00:19:24;3.28;;;2.40;;
2159;SDS011;1086;51.610;6.928;2022-08-21T00:21:53;6.88;;;3.40;;
2159;SDS011;1086;51.610;6.928;2022-08-21T00:24:20;6.00;;;3.08;;
2159;SDS011;1086;51.610;6.928;2022-08-21T00:26:45;8.27;;;3.42;;
2159;SDS011;1086;51.610;6.928;2022-08-21T00:29:11;5.90;;;3.15;;
2159;SDS011;1086;51.610;6.928;2022-08-21T00:31:36;4.27;;;3.03;;
2159;SDS011;1086;51.610;6.928;2022-08-21T00:34:02;5.35;;;3.13;;
2159;SDS011;1086;51.610;6.928;2022-08-21T00:36:27;6.68;;;2.90;;
2159;SDS011;1086;51.610;6.928;2022-08-21T00:38:53;4.60;;;3.15;;
2159;SDS011;1086;51.610;6.928;2022-08-21T00:41:18;3.50;;;2.80;;
2159;SDS011;1086;51.610;6.928;2022-08-21T00:43:43;12.70;;;3.33;;
2159;SDS011;1086;51.610;6.928;2022-08-21T00:46:08;5.87;;;3.17;;
2159;SDS011;1086;51.610;6.928;2022-08-21T00:48:34;4.93;;;2.80;;
2159;SDS011;1086;51.610;6.928;2022-08-21T00:51:00;6.63;;;3.20;;
2159;SDS011;1086;51.610;6.928;2022-08-21T00:53:26;9.73;;;3.38;;
2159;SDS011;1086;51.610;6.928;2022-08-21T00:55:53;5.97;;;3.63;;
2159;SDS011;1086;51.610;6.928;2022-08-21T00:58:19;8.45;;;3.22;;
2159;SDS011;1086;51.610;6.928;2022-08-21T01:00:49;5.57;;;3.03;;
2159;SDS011;1086;51.610;6.928;2022-08-21T01:03:16;6.43;;;2.53;;
2159;SDS011;1086;51.610;6.928;2022-08-21T01:05:42;6.50;;;3.15;;
2159;SDS011;1086;51.610;6.928;2022-08-21T01:08:07;4.55;;;3.33;;
2159;SDS011;1086;51.610;6.928;2022-08-21T01:10:33;5.50;;;3.30;;
2159;SDS011;1086;51.610;6.928;2022-08-21T01:13:00;3.58;;;2.63;;
2159;SDS011;1086;51.610;6.928;2022-08-21T01:15:28;5.45;;;3.00;;
2159;SDS011;1086;51.610;6.928;2022-08-21T01:17:54;6.53;;;3.53;;
2159;SDS011;1086;51.610;6.928;2022-08-21T01:20:19;8.68;;;3.33;;
2159;SDS011;1086;51.610;6.928;2022-08-21T01:22:44;5.43;;;3.50;;
2159;SDS011;1086;51.610;6.928;2022-08-21T01:25:12;4.63;;;3.28;;
2159;SDS011;1086;51.610;6.928;2022-08-21T01:27:38;10.13;;;3.35;;
2159;SDS011;1086;51.610;6.928;2022-08-21T01:30:08;5.78;;;3.58;;
2159;SDS011;1086;51.610;6.928;2022-08-21T01:32:34;5.78;;;3.40;;
2159;SDS011;1086;51.610;6.928;2022-08-21T01:34:59;5.10;;;3.03;;
2159;SDS011;1086;51.610;6.928;2022-08-21T01:37:24;7.30;;;3.57;;
2159;SDS011;1086;51.610;6.928;2022-08-21T01:39:49;5.60;;;3.20;;
2159;SDS011;1086;51.610;6.928;2022-08-21T01:42:14;7.60;;;3.03;;
2159;SDS011;1086;51.610;6.928;2022-08-21T01:44:40;11.63;;;3.63;;
2159;SDS011;1086;51.610;6.928;2022-08-21T01:47:07;6.78;;;3.22;;
2159;SDS011;1086;51.610;6.928;2022-08-21T01:49:32;7.13;;;3.60;;
2159;SDS011;1086;51.610;6.928;2022-08-21T01:51:57;6.40;;;3.30;;
2159;SDS011;1086;51.610;6.928;2022-08-21T01:54:23;6.40;;;3.30;;
2159;SDS011;1086;51.610;6.928;2022-08-21T01:56:49;8.07;;;3.70;;
2159;SDS011;1086;51.610;6.928;2022-08-21T01:59:15;5.22;;;3.38;;
2159;SDS011;1086;51.610;6.928;2022-08-21T02:01:41;5.53;;;3.03;;
2159;SDS011;1086;51.610;6.928;2022-08-21T02:04:06;7.78;;;3.40;;
2159;SDS011;1086;51.610;6.928;2022-08-21T02:06:32;7.38;;;3.30;;
2159;SDS011;1086;51.610;6.928;2022-08-21T02:08:57;9.38;;;3.42;;
2159;SDS011;1086;51.610;6.928;2022-08-21T02:11:22;5.13;;;3.17;;
2159;SDS011;1086;51.610;6.928;2022-08-21T02:13:47;6.80;;;3.03;;
2159;SDS011;1086;51.610;6.928;2022-08-21T02:16:13;5.53;;;3.43;;
2159;SDS011;1086;51.610;6.928;2022-08-21T02:18:38;4.20;;;3.00;;
2159;SDS011;1086;51.610;6.928;2022-08-21T02:21:04;4.35;;;2.95;;
2159;SDS011;1086;51.610;6.928;2022-08-21T02:23:29;4.93;;;3.08;;
2159;SDS011;1086;51.610;6.928;2022-08-21T02:25:56;6.90;;;2.95;;
2159;SDS011;1086;51.610;6.928;2022-08-21T02:28:21;7.40;;;3.08;;
2159;SDS011;1086;51.610;6.928;2022-08-21T02:30:47;3.30;;;2.57;;
2159;SDS011;1086;51.610;6.928;2022-08-21T02:33:13;5.03;;;2.83;;
2159;SDS011;1086;51.610;6.928;2022-08-21T02:35:39;7.10;;;3.10;;
2159;SDS011;1086;51.610;6.928;2022-08-21T02:38:07;6.40;;;2.92;;
2159;SDS011;1086;51.610;6.928;2022-08-21T02:40:34;6.38;;;2.78;;
2159;SDS011;1086;51.610;6.928;2022-08-21T02:43:00;6.20;;;2.90;;
2159;SDS011;1086;51.610;6.928;2022-08-21T02:45:26;6.43;;;2.97;;
2159;SDS011;1086;51.610;6.928;2022-08-21T02:47:56;5.22;;;2.97;;
2159;SDS011;1086;51.610;6.928;2022-08-21T02:50:27;5.65;;;3.10;;
2159;SDS011;1086;51.610;6.928;2022-08-21T02:52:53;9.85;;;3.08;;
2159;SDS011;1086;51.610;6.928;2022-08-21T02:55:19;6.28;;;2.92;;
2159;SDS011;1086;51.610;6.928;2022-08-21T02:57:45;6.78;;;3.20;;
2159;SDS011;1086;51.610;6.928;2022-08-21T03:00:11;4.47;;;3.42;;
2159;SDS011;1086;51.610;6.928;2022-08-21T03:02:37;7.07;;;3.42;;
2159;SDS011;1086;51.610;6.928;2022-08-21T03:05:03;7.68;;;3.75;;
2159;SDS011;1086;51.610;6.928;2022-08-21T03:07:29;7.72;;;3.13;;
2159;SDS011;1086;51.610;6.928;2022-08-21T03:09:55;8.13;;;3.70;;
2159;SDS011;1086;51.610;6.928;2022-08-21T03:12:20;9.10;;;3.70;;
2159;SDS011;1086;51.610;6.928;2022-08-21T03:14:45;4.83;;;2.90;;
2159;SDS011;1086;51.610;6.928;2022-08-21T03:17:10;8.50;;;3.80;;
2159;SDS011;1086;51.610;6.928;2022-08-21T03:19:36;4.60;;;3.53;;
2159;SDS011;1086;51.610;6.928;2022-08-21T03:22:01;6.00;;;3.27;;
2159;SDS011;1086;51.610;6.928;2022-08-21T03:24:26;6.07;;;3.30;;
2159;SDS011;1086;51.610;6.928;2022-08-21T03:26:51;6.20;;;3.27;;
2159;SDS011;1086;51.610;6.928;2022-08-21T03:29:17;8.15;;;3.28;;
2159;SDS011;1086;51.610;6.928;2022-08-21T03:31:42;4.80;;;3.47;;
2159;SDS011;1086;51.610;6.928;2022-08-21T03:34:07;8.97;;;3.43;;
2159;SDS011;1086;51.610;6.928;2022-08-21T03:36:32;4.60;;;3.57;;
2159;SDS011;1086;51.610;6.928;2022-08-21T03:38:58;6.03;;;3.23;;
2159;SDS011;1086;51.610;6.928;2022-08-21T03:41:23;6.70;;;3.58;;
2159;SDS011;1086;51.610;6.928;2022-08-21T03:43:48;3.50;;;2.97;;
2159;SDS011;1086;51.610;6.928;2022-08-21T03:46:13;5.33;;;2.93;;
2159;SDS011;1086;51.610;6.928;2022-08-21T03:48:39;7.03;;;3.33;;
2159;SDS011;1086;51.610;6.928;2022-08-21T03:51:04;7.70;;;3.35;;
2159;SDS011;1086;51.610;6.928;2022-08-21T03:53:29;5.70;;;3.15;;
2159;SDS011;1086;51.610;6.928;2022-08-21T03:55:55;7.45;;;3.47;;
2159;SDS011;1086;51.610;6.928;2022-08-21T03:58:21;4.88;;;3.83;;
2159;SDS011;1086;51.610;6.928;2022-08-21T04:00:47;4.30;;;3.13;;
2159;SDS011;1086;51.610;6.928;2022-08-21T04:03:14;5.25;;;3.53;;
2159;SDS011;1086;51.610;6.928;2022-08-21T04:05:39;4.95;;;3.22;;
2159;SDS011;1086;51.610;6.928;2022-08-21T04:08:06;6.88;;;3.67;;
2159;SDS011;1086;51.610;6.928;2022-08-21T04:10:32;5.97;;;3.75;;
2159;SDS011;1086;51.610;6.928;2022-08-21T04:12:57;5.60;;;2.90;;
2159;SDS011;1086;51.610;6.928;2022-08-21T04:15:24;6.85;;;3.28;;
2159;SDS011;1086;51.610;6.928;2022-08-21T04:17:49;4.88;;;3.33;;
2159;SDS011;1086;51.610;6.928;2022-08-21T04:20:17;4.77;;;3.27;;
2159;SDS011;1086;51.610;6.928;2022-08-21T04:22:43;4.22;;;3.15;;
2159;SDS011;1086;51.610;6.928;2022-08-21T04:25:09;8.00;;;4.07;;
2159;SDS011;1086;51.610;6.928;2022-08-21T04:27:34;7.97;;;3.22;;
2159;SDS011;1086;51.610;6.928;2022-08-21T04:29:59;7.03;;;3.97;;
2159;SDS011;1086;51.610;6.928;2022-08-21T04:32:26;6.35;;;3.67;;
2159;SDS011;1086;51.610;6.928;2022-08-21T04:34:57;9.15;;;3.60;;
2159;SDS011;1086;51.610;6.928;2022-08-21T04:37:22;5.90;;;3.72;;
2159;SDS011;1086;51.610;6.928;2022-08-21T04:39:47;8.33;;;4.00;;
2159;SDS011;1086;51.610;6.928;2022-08-21T04:42:13;6.53;;;3.42;;
2159;SDS011;1086;51.610;6.928;2022-08-21T04:44:39;6.88;;;3.67;;
2159;SDS011;1086;51.610;6.928;2022-08-21T04:47:04;7.20;;;4.33;;
2159;SDS011;1086;51.610;6.928;2022-08-21T04:49:30;7.05;;;3.80;;
2159;SDS011;1086;51.610;6.928;2022-08-21T04:51:56;7.22;;;3.72;;
2159;SDS011;1086;51.610;6.928;2022-08-21T04:54:21;5.63;;;3.67;;
2159;SDS011;1086;51.610;6.928;2022-08-21T04:56:47;8.82;;;4.28;;
2159;SDS011;1086;51.610;6.928;2022-08-21T04:59:21;7.80;;;3.97;;
2159;SDS011;1086;51.610;6.928;2022-08-21T05:01:47;8.27;;;4.63;;
2159;SDS011;1086;51.610;6.928;2022-08-21T05:04:14;8.10;;;4.57;;
2159;SDS011;1086;51.610;6.928;2022-08-21T05:06:41;9.00;;;4.53;;
2159;SDS011;1086;51.610;6.928;2022-08-21T05:09:08;11.45;;;4.63;;
2159;SDS011;1086;51.610;6.928;2022-08-21T05:11:34;6.70;;;4.45;;
2159;SDS011;1086;51.610;6.928;2022-08-21T05:14:00;6.28;;;4.50;;
2159;SDS011;1086;51.610;6.928;2022-08-21T05:16:25;8.73;;;4.75;;
2159;SDS011;1086;51.610;6.928;2022-08-21T05:18:51;11.73;;;5.03;;
2159;SDS011;1086;51.610;6.928;2022-08-21T05:21:16;7.50;;;4.73;;
2159;SDS011;1086;51.610;6.928;2022-08-21T05:23:41;8.43;;;4.37;;
2159;SDS011;1086;51.610;6.928;2022-08-21T05:26:07;9.63;;;5.07;;
2159;SDS011;1086;51.610;6.928;2022-08-21T05:28:33;8.60;;;5.22;;
2159;SDS011;1086;51.610;6.928;2022-08-21T05:30:58;8.10;;;5.33;;
2159;SDS011;1086;51.610;6.928;2022-08-21T05:33:23;9.07;;;5.73;;
2159;SDS011;1086;51.610;6.928;2022-08-21T05:35:50;12.50;;;5.37;;
2159;SDS011;1086;51.610;6.928;2022-08-21T05:38:16;8.63;;;5.43;;
2159;SDS011;1086;51.610;6.928;2022-08-21T05:40:41;9.27;;;5.20;;
2159;SDS011;1086;51.610;6.928;2022-08-21T05:43:07;8.63;;;5.47;;
2159;SDS011;1086;51.610;6.928;2022-08-21T05:45:32;11.37;;;5.97;;
2159;SDS011;1086;51.610;6.928;2022-08-21T05:47:57;10.27;;;5.97;;
2159;SDS011;1086;51.610;6.928;2022-08-21T05:50:23;9.55;;;6.10;;
2159;SDS011;1086;51.610;6.928;2022-08-21T05:52:48;11.07;;;6.93;;
2159;SDS011;1086;51.610;6.928;2022-08-21T05:55:13;9.80;;;6.15;;
2159;SDS011;1086;51.610;6.928;2022-08-21T05:57:39;12.05;;;6.35;;
2159;SDS011;1086;51.610;6.928;2022-08-21T06:00:07;11.38;;;7.35;;
2159;SDS011;1086;51.610;6.928;2022-08-21T06:02:35;13.75;;;7.10;;
2159;SDS011;1086;51.610;6.928;2022-08-21T06:05:00;11.48;;;6.75;;
2159;SDS011;1086;51.610;6.928;2022-08-21T06:07:25;16.33;;;7.10;;
2159;SDS011;1086;51.610;6.928;2022-08-21T06:09:51;13.63;;;7.03;;
2159;SDS011;1086;51.610;6.928;2022-08-21T06:12:16;11.30;;;7.10;;
2159;SDS011;1086;51.610;6.928;2022-08-21T06:14:42;11.43;;;6.93;;
2159;SDS011;1086;51.610;6.928;2022-08-21T06:17:08;13.13;;;7.72;;
2159;SDS011;1086;51.610;6.928;2022-08-21T06:19:34;12.02;;;7.25;;
2159;SDS011;1086;51.610;6.928;2022-08-21T06:21:59;11.60;;;7.57;;
2159;SDS011;1086;51.610;6.928;2022-08-21T06:24:24;10.93;;;6.90;;
2159;SDS011;1086;51.610;6.928;2022-08-21T06:26:50;13.93;;;6.50;;
2159;SDS011;1086;51.610;6.928;2022-08-21T06:29:15;13.07;;;6.32;;
2159;SDS011;1086;51.610;6.928;2022-08-21T06:31:42;12.70;;;7.00;;
2159;SDS011;1086;51.610;6.928;2022-08-21T06:34:07;12.60;;;6.70;;
2159;SDS011;1086;51.610;6.928;2022-08-21T06:36:32;10.80;;;5.90;;
2159;SDS011;1086;51.610;6.928;2022-08-21T06:38:58;12.75;;;5.88;;
2159;SDS011;1086;51.610;6.928;2022-08-21T06:41:23;12.17;;;6.10;;
2159;SDS011;1086;51.610;6.928;2022-08-21T06:43:49;10.85;;;5.65;;
2159;SDS011;1086;51.610;6.928;2022-08-21T06:46:14;12.90;;;6.32;;
2159;SDS011;1086;51.610;6.928;2022-08-21T06:48:39;16.43;;;6.40;;
2159;SDS011;1086;51.610;6.928;2022-08-21T06:51:05;10.23;;;6.73;;
2159;SDS011;1086;51.610;6.928;2022-08-21T06:53:30;14.02;;;6.70;;
2159;SDS011;1086;51.610;6.928;2022-08-21T06:55:56;10.25;;;6.72;;
2159;SDS011;1086;51.610;6.928;2022-08-21T06:58:21;14.73;;;7.27;;
2159;SDS011;1086;51.610;6.928;2022-08-21T07:00:47;10.38;;;5.68;;
2159;SDS011;1086;51.610;6.928;2022-08-21T07:03:17;14.63;;;5.85;;
2159;SDS011;1086;51.610;6.928;2022-08-21T07:05:43;13.63;;;6.78;;
2159;SDS011;1086;51.610;6.928;2022-08-21T07:08:08;13.07;;;5.85;;
2159;SDS011;1086;51.610;6.928;2022-08-21T07:10:34;8.77;;;5.65;;
2159;SDS011;1086;51.610;6.928;2022-08-21T07:12:59;9.15;;;5.18;;
2159;SDS011;1086;51.610;6.928;2022-08-21T07:15:24;11.75;;;6.00;;
2159;SDS011;1086;51.610;6.928;2022-08-21T07:17:50;14.00;;;6.63;;
2159;SDS011;1086;51.610;6.928;2022-08-21T07:20:15;9.53;;;4.83;;
2159;SDS011;1086;51.610;6.928;2022-08-21T07:22:40;10.93;;;5.40;;
2159;SDS011;1086;51.610;6.928;2022-08-21T07:25:06;13.73;;;6.13;;
2159;SDS011;1086;51.610;6.928;2022-08-21T07:27:32;11.98;;;6.13;;
2159;SDS011;1086;51.610;6.928;2022-08-21T07:29:58;11.32;;;5.13;;
2159;SDS011;1086;51.610;6.928;2022-08-21T07:32:24;9.07;;;5.27;;
2159;SDS011;1086;51.610;6.928;2022-08-21T07:34:49;12.55;;;5.53;;
2159;SDS011;1086;51.610;6.928;2022-08-21T07:37:14;10.30;;;5.17;;
2159;SDS011;1086;51.610;6.928;2022-08-21T07:39:40;9.87;;;4.47;;
2159;SDS011;1086;51.610;6.928;2022-08-21T07:42:05;9.63;;;4.23;;
2159;SDS011;1086;51.610;6.928;2022-08-21T07:44:30;10.82;;;3.88;;
2159;SDS011;1086;51.610;6.928;2022-08-21T07:46:56;12.25;;;4.13;;
2159;SDS011;1086;51.610;6.928;2022-08-21T07:49:21;9.52;;;4.13;;
2159;SDS011;1086;51.610;6.928;2022-08-21T07:51:46;6.70;;;3.30;;
2159;SDS011;1086;51.610;6.928;2022-08-21T07:54:11;6.27;;;2.70;;
2159;SDS011;1086;51.610;6.928;2022-08-21T07:56:37;9.43;;;2.70;;
2159;SDS011;1086;51.610;6.928;2022-08-21T07:59:02;5.07;;;1.77;;
2159;SDS011;1086;51.610;6.928;2022-08-21T08:01:28;4.13;;;1.95;;
2159;SDS011;1086;51.610;6.928;2022-08-21T08:03:53;6.38;;;2.78;;
2159;SDS011;1086;51.610;6.928;2022-08-21T08:06:20;6.53;;;2.25;;
2159;SDS011;1086;51.610;6.928;2022-08-21T08:08:45;2.60;;;2.17;;
2159;SDS011;1086;51.610;6.928;2022-08-21T08:11:11;3.80;;;1.73;;
2159;SDS011;1086;51.610;6.928;2022-08-21T08:13:40;3.30;;;1.88;;
2159;SDS011;1086;51.610;6.928;2022-08-21T08:16:06;4.57;;;1.95;;
2159;SDS011;1086;51.610;6.928;2022-08-21T08:18:33;4.50;;;1.70;;
2159;SDS011;1086;51.610;6.928;2022-08-21T08:20:59;5.05;;;1.70;;
2159;SDS011;1086;51.610;6.928;2022-08-21T08:23:24;5.30;;;2.20;;
2159;SDS011;1086;51.610;6.928;2022-08-21T08:25:50;3.28;;;1.75;;
2159;SDS011;1086;51.610;6.928;2022-08-21T08:28:15;3.87;;;1.63;;
2159;SDS011;1086;51.610;6.928;2022-08-21T08:30:40;4.67;;;1.43;;
2159;SDS011;1086;51.610;6.928;2022-08-21T08:33:07;3.55;;;1.50;;
2159;SDS011;1086;51.610;6.928;2022-08-21T08:35:32;3.28;;;1.75;;
2159;SDS011;1086;51.610;6.928;2022-08-21T08:37:58;4.10;;;1.70;;
2159;SDS011;1086;51.610;6.928;2022-08-21T08:40:35;2.33;;;1.45;;
2159;SDS011;1086;51.610;6.928;2022-08-21T08:43:03;3.45;;;1.20;;
2159;SDS011;1086;51.610;6.928;2022-08-21T08:45:30;3.85;;;1.30;;
2159;SDS011;1086;51.610;6.928;2022-08-21T08:47:58;2.67;;;1.30;;
2159;SDS011;1086;51.610;6.928;2022-08-21T08:53:01;1.98;;;1.20;;
2159;SDS011;1086;51.610;6.928;2022-08-21T08:55:37;3.58;;;1.20;;
2159;SDS011;1086;51.610;6.928;2022-08-21T08:58:04;5.78;;;2.00;;
2159;SDS011;1086;51.610;6.928;2022-08-21T09:00:30;5.43;;;1.23;;
2159;SDS011;1086;51.610;6.928;2022-08-21T09:02:56;3.92;;;1.50;;
2159;SDS011;1086;51.610;6.928;2022-08-21T09:10:21;3.30;;;1.02;;
2159;SDS011;1086;51.610;6.928;2022-08-21T09:15:33;1.27;;;0.80;;
2159;SDS011;1086;51.610;6.928;2022-08-21T09:28:15;2.58;;;1.00;;
2159;SDS011;1086;51.610;6.928;2022-08-21T09:30:41;2.63;;;1.10;;
2159;SDS011;1086;51.610;6.928;2022-08-21T09:33:07;3.45;;;1.00;;
2159;SDS011;1086;51.610;6.928;2022-08-21T09:35:32;2.13;;;1.10;;
2159;SDS011;1086;51.610;6.928;2022-08-21T09:38:04;2.47;;;1.08;;
2159;SDS011;1086;51.610;6.928;2022-08-21T09:43:22;5.03;;;1.33;;
2159;SDS011;1086;51.610;6.928;2022-08-21T09:45:46;8.45;;;1.42;;
2159;SDS011;1086;51.610;6.928;2022-08-21T09:48:18;3.53;;;1.10;;
2159;SDS011;1086;51.610;6.928;2022-08-21T09:53:16;3.90;;;1.03;;
2159;SDS011;1086;51.610;6.928;2022-08-21T09:55:53;1.95;;;1.05;;
2159;SDS011;1086;51.610;6.928;2022-08-21T09:58:38;3.25;;;0.88;;
2159;SDS011;1086;51.610;6.928;2022-08-21T10:01:04;3.03;;;1.20;;
2159;SDS011;1086;51.610;6.928;2022-08-21T10:03:29;2.75;;;0.95;;
2159;SDS011;1086;51.610;6.928;2022-08-21T10:06:03;1.38;;;0.80;;
2159;SDS011;1086;51.610;6.928;2022-08-21T10:08:33;1.67;;;0.80;;
2159;SDS011;1086;51.610;6.928;2022-08-21T10:11:04;3.08;;;1.10;;
2159;SDS011;1086;51.610;6.928;2022-08-21T10:13:34;2.22;;;0.90;;
2159;SDS011;1086;51.610;6.928;2022-08-21T10:18:39;2.47;;;1.58;;
2159;SDS011;1086;51.610;6.928;2022-08-21T10:21:21;3.25;;;1.00;;
2159;SDS011;1086;51.610;6.928;2022-08-21T10:29:18;1.60;;;0.70;;
2159;SDS011;1086;51.610;6.928;2022-08-21T10:31:52;2.20;;;0.90;;
2159;SDS011;1086;51.610;6.928;2022-08-21T10:37:07;1.55;;;0.90;;
2159;SDS011;1086;51.610;6.928;2022-08-21T10:39:35;4.63;;;1.20;;
2159;SDS011;1086;51.610;6.928;2022-08-21T10:42:20;2.67;;;0.98;;
2159;SDS011;1086;51.610;6.928;2022-08-21T10:47:18;1.92;;;0.82;;
2159;SDS011;1086;51.610;6.928;2022-08-21T10:49:52;3.90;;;1.00;;
2159;SDS011;1086;51.610;6.928;2022-08-21T10:52:32;4.07;;;1.17;;
2159;SDS011;1086;51.610;6.928;2022-08-21T10:55:10;4.38;;;0.98;;
2159;SDS011;1086;51.610;6.928;2022-08-21T11:00:07;5.53;;;1.10;;
2159;SDS011;1086;51.610;6.928;2022-08-21T11:05:34;2.42;;;1.13;;
2159;SDS011;1086;51.610;6.928;2022-08-21T11:08:06;2.30;;;1.02;;
2159;SDS011;1086;51.610;6.928;2022-08-21T11:10:39;2.65;;;0.93;;
2159;SDS011;1086;51.610;6.928;2022-08-21T11:13:11;3.00;;;1.10;;
2159;SDS011;1086;51.610;6.928;2022-08-21T11:15:43;6.30;;;1.20;;
2159;SDS011;1086;51.610;6.928;2022-08-21T11:23:21;3.87;;;1.73;;
2159;SDS011;1086;51.610;6.928;2022-08-21T11:26:32;2.95;;;1.15;;
2159;SDS011;1086;51.610;6.928;2022-08-21T11:28:45;2.65;;;0.88;;
2159;SDS011;1086;51.610;6.928;2022-08-21T11:47:33;2.90;;;0.65;;
2159;SDS011;1086;51.610;6.928;2022-08-21T11:50:13;0.90;;;0.80;;
2159;SDS011;1086;51.610;6.928;2022-08-21T11:52:40;1.48;;;0.73;;
2159;SDS011;1086;51.610;6.928;2022-08-21T11:57:44;2.77;;;0.73;;
2159;SDS011;1086;51.610;6.928;2022-08-21T12:02:45;1.00;;;0.80;;
2159;SDS011;1086;51.610;6.928;2022-08-21T12:05:22;4.57;;;0.90;;
2159;SDS011;1086;51.610;6.928;2022-08-21T12:07:47;1.77;;;0.80;;
2159;SDS011;1086;51.610;6.928;2022-08-21T12:10:15;5.22;;;0.90;;
2159;SDS011;1086;51.610;6.928;2022-08-21T12:12:41;1.65;;;0.70;;
2159;SDS011;1086;51.610;6.928;2022-08-21T12:17:37;2.33;;;0.95;;
2159;SDS011;1086;51.610;6.928;2022-08-21T12:20:16;1.85;;;0.88;;
2159;SDS011;1086;51.610;6.928;2022-08-21T12:22:47;1.17;;;0.90;;
2159;SDS011;1086;51.610;6.928;2022-08-21T12:25:16;1.38;;;0.68;;
2159;SDS011;1086;51.610;6.928;2022-08-21T12:27:46;1.73;;;0.60;;
2159;SDS011;1086;51.610;6.928;2022-08-21T12:30:22;2.05;;;0.50;;
2159;SDS011;1086;51.610;6.928;2022-08-21T12:32:54;0.65;;;0.47;;
2159;SDS011;1086;51.610;6.928;2022-08-21T12:35:25;3.25;;;0.90;;
2159;SDS011;1086;51.610;6.928;2022-08-21T12:42:45;0.93;;;0.70;;
2159;SDS011;1086;51.610;6.928;2022-08-21T12:47:56;3.20;;;0.88;;
2159;SDS011;1086;51.610;6.928;2022-08-21T12:50:32;1.77;;;0.70;;
2159;SDS011;1086;51.610;6.928;2022-08-21T12:55:44;0.73;;;0.70;;
2159;SDS011;1086;51.610;6.928;2022-08-21T13:01:03;1.30;;;0.70;;
2159;SDS011;1086;51.610;6.928;2022-08-21T13:03:28;0.70;;;0.60;;
2159;SDS011;1086;51.610;6.928;2022-08-21T13:05:54;2.47;;;0.70;;
2159;SDS011;1086;51.610;6.928;2022-08-21T13:08:20;2.67;;;0.75;;
2159;SDS011;1086;51.610;6.928;2022-08-21T13:10:47;3.63;;;0.73;;
2159;SDS011;1086;51.610;6.928;2022-08-21T13:13:16;1.67;;;0.60;;
2159;SDS011;1086;51.610;6.928;2022-08-21T13:15:42;1.53;;;0.77;;
2159;SDS011;1086;51.610;6.928;2022-08-21T13:18:08;2.17;;;0.70;;
2159;SDS011;1086;51.610;6.928;2022-08-21T13:20:39;2.17;;;0.70;;
2159;SDS011;1086;51.610;6.928;2022-08-21T13:23:20;1.77;;;0.70;;
2159;SDS011;1086;51.610;6.928;2022-08-21T13:25:47;1.42;;;0.63;;
2159;SDS011;1086;51.610;6.928;2022-08-21T13:28:12;1.83;;;0.47;;
2159;SDS011;1086;51.610;6.928;2022-08-21T13:30:44;2.33;;;0.93;;
2159;SDS011;1086;51.610;6.928;2022-08-21T13:33:10;5.10;;;1.20;;
2159;SDS011;1086;51.610;6.928;2022-08-21T13:35:51;2.30;;;0.75;;
2159;SDS011;1086;51.610;6.928;2022-08-21T13:38:17;1.23;;;0.52;;
2159;SDS011;1086;51.610;6.928;2022-08-21T13:43:35;2.15;;;0.70;;
2159;SDS011;1086;51.610;6.928;2022-08-21T13:46:02;1.65;;;0.50;;
2159;SDS011;1086;51.610;6.928;2022-08-21T13:48:32;1.95;;;0.65;;
2159;SDS011;1086;51.610;6.928;2022-08-21T13:50:58;2.92;;;0.80;;
2159;SDS011;1086;51.610;6.928;2022-08-21T13:55:52;0.95;;;0.63;;
2159;SDS011;1086;51.610;6.928;2022-08-21T13:58:31;1.73;;;0.80;;
2159;SDS011;1086;51.610;6.928;2022-08-21T14:00:57;1.80;;;0.60;;
2159;SDS011;1086;51.610;6.928;2022-08-21T14:03:29;1.60;;;0.93;;
2159;SDS011;1086;51.610;6.928;2022-08-21T14:05:55;2.13;;;0.82;;
2159;SDS011;1086;51.610;6.928;2022-08-21T14:08:24;2.70;;;0.98;;
2159;SDS011;1086;51.610;6.928;2022-08-21T14:10:52;4.90;;;0.90;;
2159;SDS011;1086;51.610;6.928;2022-08-21T14:13:55;0.57;;;0.57;;
2159;SDS011;1086;51.610;6.928;2022-08-21T14:16:11;1.75;;;0.82;;
2159;SDS011;1086;51.610;6.928;2022-08-21T14:18:43;2.03;;;0.88;;
2159;SDS011;1086;51.610;6.928;2022-08-21T14:21:09;3.33;;;0.90;;
2159;SDS011;1086;51.610;6.928;2022-08-21T14:23:34;2.35;;;1.00;;
2159;SDS011;1086;51.610;6.928;2022-08-21T14:26:00;1.20;;;0.80;;
2159;SDS011;1086;51.610;6.928;2022-08-21T14:28:28;2.00;;;0.68;;
2159;SDS011;1086;51.610;6.928;2022-08-21T14:30:53;2.35;;;0.90;;
2159;SDS011;1086;51.610;6.928;2022-08-21T14:33:26;2.33;;;1.00;;
2159;SDS011;1086;51.610;6.928;2022-08-21T14:35:51;5.55;;;1.00;;
2159;SDS011;1086;51.610;6.928;2022-08-21T14:38:18;2.22;;;0.82;;
2159;SDS011;1086;51.610;6.928;2022-08-21T14:40:45;2.50;;;1.77;;
2159;SDS011;1086;51.610;6.928;2022-08-21T14:43:11;4.75;;;2.08;;
2159;SDS011;1086;51.610;6.928;2022-08-21T14:45:37;4.65;;;1.55;;
2159;SDS011;1086;51.610;6.928;2022-08-21T14:48:05;2.22;;;1.40;;
2159;SDS011;1086;51.610;6.928;2022-08-21T14:50:30;1.20;;;0.60;;
2159;SDS011;1086;51.610;6.928;2022-08-21T14:52:55;1.93;;;0.70;;
2159;SDS011;1086;51.610;6.928;2022-08-21T14:55:21;1.00;;;0.70;;
2159;SDS011;1086;51.610;6.928;2022-08-21T14:57:47;0.80;;;0.63;;
2159;SDS011;1086;51.610;6.928;2022-08-21T15:00:15;2.13;;;1.00;;
2159;SDS011;1086;51.610;6.928;2022-08-21T15:02:41;1.38;;;0.60;;
2159;SDS011;1086;51.610;6.928;2022-08-21T15:05:07;3.65;;;0.93;;
2159;SDS011;1086;51.610;6.928;2022-08-21T15:07:32;1.63;;;0.63;;
2159;SDS011;1086;51.610;6.928;2022-08-21T15:09:58;2.77;;;0.73;;
2159;SDS011;1086;51.610;6.928;2022-08-21T15:12:23;1.57;;;1.17;;
2159;SDS011;1086;51.610;6.928;2022-08-21T15:14:49;4.50;;;2.90;;
2159;SDS011;1086;51.610;6.928;2022-08-21T15:17:14;5.95;;;1.58;;
2159;SDS011;1086;51.610;6.928;2022-08-21T15:19:40;4.15;;;3.13;;
2159;SDS011;1086;51.610;6.928;2022-08-21T15:22:06;2.10;;;0.63;;
2159;SDS011;1086;51.610;6.928;2022-08-21T15:24:31;8.17;;;4.13;;
2159;SDS011;1086;51.610;6.928;2022-08-21T15:27:00;6.10;;;2.25;;
2159;SDS011;1086;51.610;6.928;2022-08-21T15:29:33;6.00;;;3.38;;
2159;SDS011;1086;51.610;6.928;2022-08-21T15:32:00;6.75;;;3.58;;
2159;SDS011;1086;51.610;6.928;2022-08-21T15:34:27;2.47;;;0.80;;
2159;SDS011;1086;51.610;6.928;2022-08-21T15:36:52;5.63;;;2.95;;
2159;SDS011;1086;51.610;6.928;2022-08-21T15:39:18;2.78;;;1.98;;
2159;SDS011;1086;51.610;6.928;2022-08-21T15:41:43;3.67;;;0.95;;
2159;SDS011;1086;51.610;6.928;2022-08-21T15:44:09;2.03;;;1.08;;
2159;SDS011;1086;51.610;6.928;2022-08-21T15:46:34;1.15;;;0.80;;
2159;SDS011;1086;51.610;6.928;2022-08-21T15:49:01;2.53;;;0.68;;
2159;SDS011;1086;51.610;6.928;2022-08-21T15:51:26;0.97;;;0.67;;
2159;SDS011;1086;51.610;6.928;2022-08-21T15:53:51;1.43;;;1.10;;
2159;SDS011;1086;51.610;6.928;2022-08-21T15:56:21;1.10;;;0.68;;
2159;SDS011;1086;51.610;6.928;2022-08-21T15:58:48;1.58;;;0.90;;
2159;SDS011;1086;51.610;6.928;2022-08-21T16:01:13;2.10;;;0.65;;
2159;SDS011;1086;51.610;6.928;2022-08-21T16:03:39;1.43;;;0.70;;
2159;SDS011;1086;51.610;6.928;2022-08-21T16:06:04;1.88;;;0.68;;
2159;SDS011;1086;51.610;6.928;2022-08-21T16:08:29;2.47;;;0.90;;
2159;SDS011;1086;51.610;6.928;2022-08-21T16:10:54;0.87;;;0.70;;
2159;SDS011;1086;51.610;6.928;2022-08-21T16:13:24;2.20;;;0.80;;
2159;SDS011;1086;51.610;6.928;2022-08-21T16:15:50;2.97;;;1.13;;
2159;SDS011;1086;51.610;6.928;2022-08-21T16:18:16;1.00;;;0.65;;
2159;SDS011;1086;51.610;6.928;2022-08-21T16:20:42;1.60;;;0.68;;
2159;SDS011;1086;51.610;6.928;2022-08-21T16:23:07;4.65;;;2.25;;
2159;SDS011;1086;51.610;6.928;2022-08-21T16:25:34;1.67;;;1.27;;
2159;SDS011;1086;51.610;6.928;2022-08-21T16:28:00;1.35;;;0.80;;
2159;SDS011;1086;51.610;6.928;2022-08-21T16:30:26;1.13;;;0.98;;
2159;SDS011;1086;51.610;6.928;2022-08-21T16:32:52;3.85;;;0.73;;
2159;SDS011;1086;51.610;6.928;2022-08-21T16:35:18;0.80;;;0.77;;
2159;SDS011;1086;51.610;6.928;2022-08-21T16:37:43;3.05;;;1.10;;
2159;SDS011;1086;51.610;6.928;2022-08-21T16:40:09;2.47;;;0.80;;
2159;SDS011;1086;51.610;6.928;2022-08-21T16:42:34;2.50;;;0.95;;
2159;SDS011;1086;51.610;6.928;2022-08-21T16:45:00;3.13;;;0.80;;